Flood From: 17-02-2018 16:00 Until: 18-02-2018 16:00 warning for: Flood Level: Yellow info button

Although rather usual in this region, locally or potentially dangerous phenomena are expected. (such as local winds, summer thunderstorms, rising streams or high waves) Be aware and pay attention to the latest weather updates, especially if you carry out activities exposed to weather or close to a stream or shoreline. 


Meteo18 Weather Cam more information Meteo18 Weather Cam


Thunder radar more information blitzortung!


Rain radar more information rain snow radar


Visit our other weather sites:

Template documentation
and downloads

And another site



Weather Underground History page Text

Daily Summary for January 10, 2018 Units:  Both    English   Metric
« Previous Day
Next Day »
Daily Weekly Monthly Yearly Custom
  High: Low: Average:
Temperature: TemperatureC °F /  -17.8 °C 4.8 °F /  -15.1 °C 6.8 °F /  -14 °C
Dew Point: DewpointC °F /  -17.8 °C 3.8 °F /  -15.7 °C 5.7 °F /  -14.6 °C
Humidity: Humidity % 88 % 92 %
Wind Speed: WindSpeedKMH mph /  0 km/h - 5.4 mph /  8.7 km/h
Wind Gust: WindSpeedGustKMH mph /  0 km/h - -
Wind:- - SW
Pressure: PressurehPa in /  0 hPa 1009.0 in /  34164.7 hPa -
Precipitation: 6.6 in /  167.64 mm    
Historical Graphs
 
 
Tabular Data for January 10, 2018
Time Temperature Dew Point Pressure Wind Wind Speed Wind Gust Humidity Rainfall Rate (Hourly)
TemperatureC °F /  -17.8 °C DewpointC °F /  -17.8 °C PressurehPa in /  0 hPa Calm     Humidity % HourlyPrecipMM in /  0 mm
03:04 5.0 °F /  -15 °C 3.8 °F /  -15.7 °C 1010.4 in /  34212.1 hPa SSW 1.4 mph /  2.3 km/h 8.0 mph /  12.9 km/h 92 % 0.0 in /  0 mm
05:15 4.8 °F /  -15.1 °C 3.9 °F /  -15.6 °C 1009.7 in /  34188.4 hPa Calm   3.2 mph /  5.1 km/h 94 % 1.0 in /  25.4 mm
07:11 5.3 °F /  -14.8 °C 4.7 °F /  -15.2 °C 1009.7 in /  34188.4 hPa WSW 6.4 mph /  10.3 km/h 8.0 mph /  12.9 km/h 96 % 0.5 in /  12.7 mm
07:51 5.5 °F /  -14.7 °C 5.1 °F /  -14.9 °C 1009.7 in /  34188.4 hPa SSW 6.4 mph /  10.3 km/h 9.7 mph /  15.6 km/h 97 % 0.3 in /  7.62 mm
11:58 7.2 °F /  -13.8 °C 6.9 °F /  -13.9 °C 1010.7 in /  34222.3 hPa SSW 4.7 mph /  7.6 km/h 9.7 mph /  15.6 km/h 98 % 0.5 in /  12.7 mm
14:04 7.7 °F /  -13.5 °C 7.1 °F /  -13.8 °C 1009.4 in /  34178.3 hPa SSW 11.1 mph /  17.9 km/h 19.3 mph /  31.1 km/h 96 % 0.3 in /  7.62 mm
15:10 8.1 °F /  -13.3 °C 7.5 °F /  -13.6 °C 1009.0 in /  34164.7 hPa SW 13.0 mph /  20.9 km/h 14.5 mph /  23.3 km/h 96 % 0.0 in /  0 mm
15:14 8.2 °F /  -13.2 °C 7.4 °F /  -13.7 °C 1009.0 in /  34164.7 hPa SW 14.3 mph /  23 km/h 20.9 mph /  33.6 km/h 95 % 0.0 in /  0 mm
15:20 8.3 °F /  -13.2 °C 7.4 °F /  -13.7 °C 1009.0 in /  34164.7 hPa SSW 9.7 mph /  15.6 km/h 24.1 mph /  38.8 km/h 94 % 0.0 in /  0 mm
15:21 8.2 °F /  -13.2 °C 7.4 °F /  -13.7 °C 1009.0 in /  34164.7 hPa SW 16.3 mph /  26.2 km/h 22.5 mph /  36.2 km/h 95 % 0.0 in /  0 mm
15:24 8.3 °F /  -13.2 °C 7.4 °F /  -13.7 °C 1009.0 in /  34164.7 hPa SW 17.7 mph /  28.5 km/h 24.1 mph /  38.8 km/h 94 % 0.0 in /  0 mm
15:28 8.3 °F /  -13.2 °C 7.2 °F /  -13.8 °C 1009.0 in /  34164.7 hPa SW 13.0 mph /  20.9 km/h 17.7 mph /  28.5 km/h 93 % 0.0 in /  0 mm
15:30 8.3 °F /  -13.2 °C 7.2 °F /  -13.8 °C 1009.0 in /  34164.7 hPa SW 16.3 mph /  26.2 km/h 20.9 mph /  33.6 km/h 93 % 0.0 in /  0 mm
15:34 8.3 °F /  -13.2 °C 7.2 °F /  -13.8 °C 1009.4 in /  34178.3 hPa SW 7.9 mph /  12.7 km/h 19.3 mph /  31.1 km/h 93 % 0.0 in /  0 mm
15:38 8.3 °F /  -13.2 °C 7.2 °F /  -13.8 °C 1009.0 in /  34164.7 hPa SW 11.1 mph /  17.9 km/h 12.9 mph /  20.8 km/h 93 % 0.0 in /  0 mm
15:44 8.4 °F /  -13.1 °C 7.3 °F /  -13.7 °C 1009.0 in /  34164.7 hPa WSW 11.1 mph /  17.9 km/h 19.3 mph /  31.1 km/h 93 % 0.0 in /  0 mm
15:46 8.4 °F /  -13.1 °C 7.3 °F /  -13.7 °C 1009.0 in /  34164.7 hPa WSW 9.7 mph /  15.6 km/h 20.9 mph /  33.6 km/h 93 % 0.0 in /  0 mm
15:54 8.5 °F /  -13.1 °C 7.4 °F /  -13.7 °C 1009.4 in /  34178.3 hPa SW 9.7 mph /  15.6 km/h 19.3 mph /  31.1 km/h 93 % 0.3 in /  7.62 mm
15:56 8.5 °F /  -13.1 °C 7.4 °F /  -13.7 °C 1009.4 in /  34178.3 hPa SW 7.9 mph /  12.7 km/h 19.3 mph /  31.1 km/h 93 % 0.3 in /  7.62 mm
16:00 8.6 °F /  -13 °C 7.5 °F /  -13.6 °C 1009.4 in /  34178.3 hPa SW 7.9 mph /  12.7 km/h 14.5 mph /  23.3 km/h 93 % 0.3 in /  7.62 mm
16:04 8.5 °F /  -13.1 °C 7.4 °F /  -13.7 °C 1009.4 in /  34178.3 hPa SW 13.0 mph /  20.9 km/h 17.7 mph /  28.5 km/h 93 % 0.3 in /  7.62 mm
16:06 8.4 °F /  -13.1 °C 7.3 °F /  -13.7 °C 1009.4 in /  34178.3 hPa SSW 7.9 mph /  12.7 km/h 12.9 mph /  20.8 km/h 93 % 0.3 in /  7.62 mm
16:12 8.3 °F /  -13.2 °C 7.2 °F /  -13.8 °C 1009.4 in /  34178.3 hPa SW 9.7 mph /  15.6 km/h 16.1 mph /  25.9 km/h 93 % 0.3 in /  7.62 mm
16:18 8.3 °F /  -13.2 °C 7.2 °F /  -13.8 °C 1009.4 in /  34178.3 hPa West 7.9 mph /  12.7 km/h 8.0 mph /  12.9 km/h 93 % 0.3 in /  7.62 mm
16:22 8.3 °F /  -13.2 °C 7.2 °F /  -13.8 °C 1009.4 in /  34178.3 hPa West 4.7 mph /  7.6 km/h 9.7 mph /  15.6 km/h 93 % 0.3 in /  7.62 mm
16:24 8.3 °F /  -13.2 °C 7.2 °F /  -13.8 °C 1009.4 in /  34178.3 hPa WSW 1.4 mph /  2.3 km/h 4.8 mph /  7.7 km/h 93 % 0.3 in /  7.62 mm
16:30 8.3 °F /  -13.2 °C 7.4 °F /  -13.7 °C 1009.7 in /  34188.4 hPa WSW 6.4 mph /  10.3 km/h 11.3 mph /  18.2 km/h 94 % 0.5 in /  12.7 mm
16:36 7.9 °F /  -13.4 °C 6.4 °F /  -14.2 °C 1009.4 in /  34178.3 hPa SSW 6.4 mph /  10.3 km/h 16.1 mph /  25.9 km/h 90 % 0.8 in /  20.32 mm
16:40 7.8 °F /  -13.4 °C 6.1 °F /  -14.4 °C 1009.4 in /  34178.3 hPa SW 11.1 mph /  17.9 km/h 14.5 mph /  23.3 km/h 89 % 0.8 in /  20.32 mm
16:46 7.8 °F /  -13.4 °C 6.1 °F /  -14.4 °C 1009.4 in /  34178.3 hPa SW 13.0 mph /  20.9 km/h 16.1 mph /  25.9 km/h 89 % 0.8 in /  20.32 mm
16:48 7.8 °F /  -13.4 °C 5.9 °F /  -14.5 °C 1009.4 in /  34178.3 hPa SW 11.1 mph /  17.9 km/h 16.1 mph /  25.9 km/h 88 % 0.5 in /  12.7 mm
16:56 7.6 °F /  -13.6 °C 5.7 °F /  -14.6 °C 1009.7 in /  34188.4 hPa SW 6.4 mph /  10.3 km/h 12.9 mph /  20.8 km/h 88 % 0.5 in /  12.7 mm
16:58 7.6 °F /  -13.6 °C 5.7 °F /  -14.6 °C 1009.7 in /  34188.4 hPa SW 14.3 mph /  23 km/h 14.5 mph /  23.3 km/h 88 % 0.5 in /  12.7 mm
17:04 7.5 °F /  -13.6 °C 5.6 °F /  -14.7 °C 1009.7 in /  34188.4 hPa SW 9.7 mph /  15.6 km/h 9.7 mph /  15.6 km/h 88 % 0.5 in /  12.7 mm
17:10 7.4 °F /  -13.7 °C 5.5 °F /  -14.7 °C 1009.7 in /  34188.4 hPa SW 4.7 mph /  7.6 km/h 9.7 mph /  15.6 km/h 88 % 0.5 in /  12.7 mm
17:18 7.3 °F /  -13.7 °C 5.6 °F /  -14.7 °C 1009.7 in /  34188.4 hPa WSW 4.7 mph /  7.6 km/h 9.7 mph /  15.6 km/h 89 % 0.5 in /  12.7 mm
17:24 7.2 °F /  -13.8 °C 5.7 °F /  -14.6 °C 1009.7 in /  34188.4 hPa West 7.9 mph /  12.7 km/h 8.0 mph /  12.9 km/h 90 % 0.5 in /  12.7 mm
17:30 7.2 °F /  -13.8 °C 5.8 °F /  -14.6 °C 1009.7 in /  34188.4 hPa WSW 3.2 mph /  5.1 km/h 11.3 mph /  18.2 km/h 91 % 0.3 in /  7.62 mm
17:38 7.3 °F /  -13.7 °C 5.9 °F /  -14.5 °C 1009.7 in /  34188.4 hPa SW 3.2 mph /  5.1 km/h 8.0 mph /  12.9 km/h 91 % 0.0 in /  0 mm
17:42 7.3 °F /  -13.7 °C 5.9 °F /  -14.5 °C 1009.7 in /  34188.4 hPa WSW 4.7 mph /  7.6 km/h 6.4 mph /  10.3 km/h 91 % 0.0 in /  0 mm
17:48 7.3 °F /  -13.7 °C 5.9 °F /  -14.5 °C 1009.7 in /  34188.4 hPa WSW 4.7 mph /  7.6 km/h 4.8 mph /  7.7 km/h 91 % 0.0 in /  0 mm
17:52 7.3 °F /  -13.7 °C 5.9 °F /  -14.5 °C 1009.7 in /  34188.4 hPa WSW 4.7 mph /  7.6 km/h 8.0 mph /  12.9 km/h 91 % 0.0 in /  0 mm
17:58 7.3 °F /  -13.7 °C 5.9 °F /  -14.5 °C 1009.7 in /  34188.4 hPa West 3.2 mph /  5.1 km/h 4.8 mph /  7.7 km/h 91 % 0.0 in /  0 mm
18:04 7.4 °F /  -13.7 °C 6.0 °F /  -14.4 °C 1009.7 in /  34188.4 hPa SW 4.7 mph /  7.6 km/h 6.4 mph /  10.3 km/h 91 % 0.0 in /  0 mm
18:10 7.5 °F /  -13.6 °C 6.1 °F /  -14.4 °C 1009.7 in /  34188.4 hPa SSW 4.7 mph /  7.6 km/h 6.4 mph /  10.3 km/h 91 % 0.0 in /  0 mm
18:17 7.4 °F /  -13.7 °C 6.0 °F /  -14.4 °C 1009.7 in /  34188.4 hPa SSW 4.7 mph /  7.6 km/h 4.8 mph /  7.7 km/h 91 % 0.0 in /  0 mm
18:22 7.2 °F /  -13.8 °C 6.1 °F /  -14.4 °C 1010.0 in /  34198.6 hPa SSW 14.3 mph /  23 km/h 19.3 mph /  31.1 km/h 93 % 0.5 in /  12.7 mm
18:28 7.2 °F /  -13.8 °C 6.1 °F /  -14.4 °C 1010.0 in /  34198.6 hPa WSW 13.0 mph /  20.9 km/h 16.1 mph /  25.9 km/h 93 % 0.5 in /  12.7 mm
18:34 7.2 °F /  -13.8 °C 5.8 °F /  -14.6 °C 1010.0 in /  34198.6 hPa West 9.7 mph /  15.6 km/h 16.1 mph /  25.9 km/h 91 % 0.8 in /  20.32 mm
18:42 7.0 °F /  -13.9 °C 5.6 °F /  -14.7 °C 1010.0 in /  34198.6 hPa WSW 13.0 mph /  20.9 km/h 17.7 mph /  28.5 km/h 91 % 1.3 in /  33.02 mm
18:48 6.8 °F /  -14 °C 5.6 °F /  -14.7 °C 1010.0 in /  34198.6 hPa SSW 6.4 mph /  10.3 km/h 9.7 mph /  15.6 km/h 92 % 1.3 in /  33.02 mm
18:57 6.7 °F /  -14.1 °C 5.5 °F /  -14.7 °C 1010.0 in /  34198.6 hPa SW 6.4 mph /  10.3 km/h 8.0 mph /  12.9 km/h 92 % 1.3 in /  33.02 mm
19:03 6.7 °F /  -14.1 °C 5.3 °F /  -14.8 °C 1010.0 in /  34198.6 hPa SSW 7.9 mph /  12.7 km/h 11.3 mph /  18.2 km/h 91 % 1.3 in /  33.02 mm
19:11 6.8 °F /  -14 °C 5.3 °F /  -14.8 °C 1010.0 in /  34198.6 hPa SW 4.7 mph /  7.6 km/h 12.9 mph /  20.8 km/h 90 % 1.3 in /  33.02 mm
19:17 6.8 °F /  -14 °C 5.3 °F /  -14.8 °C 1010.0 in /  34198.6 hPa WSW 9.7 mph /  15.6 km/h 12.9 mph /  20.8 km/h 90 % 1.3 in /  33.02 mm
19:23 6.9 °F /  -13.9 °C 5.2 °F /  -14.9 °C 1010.0 in /  34198.6 hPa South 4.7 mph /  7.6 km/h 9.7 mph /  15.6 km/h 89 % 0.8 in /  20.32 mm
19:29 6.7 °F /  -14.1 °C 5.2 °F /  -14.9 °C 1010.0 in /  34198.6 hPa SSW 3.2 mph /  5.1 km/h 4.8 mph /  7.7 km/h 90 % 0.5 in /  12.7 mm
19:35 6.6 °F /  -14.1 °C 5.4 °F /  -14.8 °C 1010.0 in /  34198.6 hPa SSW 1.4 mph /  2.3 km/h 3.2 mph /  5.1 km/h 92 % 0.5 in /  12.7 mm
19:41 6.4 °F /  -14.2 °C 5.2 °F /  -14.9 °C 1010.0 in /  34198.6 hPa SSW 1.4 mph /  2.3 km/h 1.6 mph /  2.6 km/h 92 % 0.3 in /  7.62 mm
19:59 6.3 °F /  -14.3 °C 5.4 °F /  -14.8 °C 1010.4 in /  34212.1 hPa Calm   3.2 mph /  5.1 km/h 94 % 0.0 in /  0 mm
20:05 6.4 °F /  -14.2 °C 5.5 °F /  -14.7 °C 1010.4 in /  34212.1 hPa WSW 3.2 mph /  5.1 km/h 4.8 mph /  7.7 km/h 94 % 0.3 in /  7.62 mm
20:11 6.5 °F /  -14.2 °C 5.4 °F /  -14.8 °C 1010.4 in /  34212.1 hPa WSW 3.2 mph /  5.1 km/h 8.0 mph /  12.9 km/h 93 % 0.3 in /  7.62 mm
20:17 6.5 °F /  -14.2 °C 5.4 °F /  -14.8 °C 1010.4 in /  34212.1 hPa SW 1.4 mph /  2.3 km/h 4.8 mph /  7.7 km/h 93 % 0.3 in /  7.62 mm
20:23 6.6 °F /  -14.1 °C 5.4 °F /  -14.8 °C 1010.4 in /  34212.1 hPa Calm   4.8 mph /  7.7 km/h 92 % 0.3 in /  7.62 mm
20:29 6.5 °F /  -14.2 °C 5.3 °F /  -14.8 °C 1010.4 in /  34212.1 hPa SSW 1.4 mph /  2.3 km/h 1.6 mph /  2.6 km/h 92 % 0.3 in /  7.62 mm
20:37 6.4 °F /  -14.2 °C 5.2 °F /  -14.9 °C 1010.4 in /  34212.1 hPa Calm   3.2 mph /  5.1 km/h 92 % 0.3 in /  7.62 mm
20:43 6.3 °F /  -14.3 °C 5.3 °F /  -14.8 °C 1010.4 in /  34212.1 hPa South 3.2 mph /  5.1 km/h 3.2 mph /  5.1 km/h 93 % 0.3 in /  7.62 mm
20:49 6.2 °F /  -14.3 °C 5.2 °F /  -14.9 °C 1010.4 in /  34212.1 hPa Calm   1.6 mph /  2.6 km/h 93 % 0.3 in /  7.62 mm
20:55 6.2 °F /  -14.3 °C 5.2 °F /  -14.9 °C 1010.4 in /  34212.1 hPa SW 3.2 mph /  5.1 km/h 3.2 mph /  5.1 km/h 93 % 0.3 in /  7.62 mm
21:03 6.1 °F /  -14.4 °C 5.2 °F /  -14.9 °C 1010.0 in /  34198.6 hPa SSE 1.4 mph /  2.3 km/h 1.6 mph /  2.6 km/h 94 % 0.0 in /  0 mm
21:07 6.1 °F /  -14.4 °C 5.2 °F /  -14.9 °C 1010.0 in /  34198.6 hPa Calm   1.6 mph /  2.6 km/h 94 % 0.0 in /  0 mm
21:13 6.0 °F /  -14.4 °C 5.1 °F /  -14.9 °C 1010.4 in /  34212.1 hPa SSW 1.4 mph /  2.3 km/h 3.2 mph /  5.1 km/h 94 % 0.0 in /  0 mm
21:19 5.9 °F /  -14.5 °C 5.0 °F /  -15 °C 1010.4 in /  34212.1 hPa SW 3.2 mph /  5.1 km/h 4.8 mph /  7.7 km/h 94 % 0.0 in /  0 mm
21:25 5.9 °F /  -14.5 °C 5.2 °F /  -14.9 °C 1010.4 in /  34212.1 hPa SSW 3.2 mph /  5.1 km/h 8.0 mph /  12.9 km/h 95 % 0.0 in /  0 mm
21:33 5.9 °F /  -14.5 °C 5.2 °F /  -14.9 °C 1010.4 in /  34212.1 hPa SW 1.4 mph /  2.3 km/h 3.2 mph /  5.1 km/h 95 % 0.0 in /  0 mm
21:39 5.9 °F /  -14.5 °C 5.2 °F /  -14.9 °C 1010.4 in /  34212.1 hPa SSW 1.4 mph /  2.3 km/h 3.2 mph /  5.1 km/h 95 % 0.0 in /  0 mm
21:45 5.9 °F /  -14.5 °C 5.2 °F /  -14.9 °C 1010.4 in /  34212.1 hPa Calm   1.6 mph /  2.6 km/h 95 % 0.0 in /  0 mm
21:51 5.9 °F /  -14.5 °C 5.2 °F /  -14.9 °C 1010.4 in /  34212.1 hPa Calm   3.2 mph /  5.1 km/h 95 % 0.0 in /  0 mm
21:57 5.9 °F /  -14.5 °C 5.2 °F /  -14.9 °C 1010.4 in /  34212.1 hPa Calm   3.2 mph /  5.1 km/h 95 % 0.0 in /  0 mm
22:03 5.9 °F /  -14.5 °C 5.2 °F /  -14.9 °C 1010.4 in /  34212.1 hPa SW 1.4 mph /  2.3 km/h 4.8 mph /  7.7 km/h 95 % 0.0 in /  0 mm
22:09 6.1 °F /  -14.4 °C 5.4 °F /  -14.8 °C 1010.4 in /  34212.1 hPa SW 4.7 mph /  7.6 km/h 6.4 mph /  10.3 km/h 95 % 0.0 in /  0 mm
22:15 6.2 °F /  -14.3 °C 5.3 °F /  -14.8 °C 1010.4 in /  34212.1 hPa SW 6.4 mph /  10.3 km/h 6.4 mph /  10.3 km/h 94 % 0.0 in /  0 mm
22:21 6.2 °F /  -14.3 °C 5.3 °F /  -14.8 °C 1010.4 in /  34212.1 hPa SW 4.7 mph /  7.6 km/h 9.7 mph /  15.6 km/h 94 % 0.0 in /  0 mm
22:27 6.2 °F /  -14.3 °C 5.3 °F /  -14.8 °C 1010.4 in /  34212.1 hPa SW 4.7 mph /  7.6 km/h 6.4 mph /  10.3 km/h 94 % 0.0 in /  0 mm
22:33 6.2 °F /  -14.3 °C 5.2 °F /  -14.9 °C 1010.4 in /  34212.1 hPa SW 4.7 mph /  7.6 km/h 6.4 mph /  10.3 km/h 93 % 0.0 in /  0 mm
22:39 6.1 °F /  -14.4 °C 5.1 °F /  -14.9 °C 1010.4 in /  34212.1 hPa SSW 1.4 mph /  2.3 km/h 6.4 mph /  10.3 km/h 93 % 0.0 in /  0 mm
22:45 5.8 °F /  -14.6 °C 4.8 °F /  -15.1 °C 1010.4 in /  34212.1 hPa SSW 1.4 mph /  2.3 km/h 4.8 mph /  7.7 km/h 93 % 0.0 in /  0 mm
22:51 5.6 °F /  -14.7 °C 4.6 °F /  -15.2 °C 1010.4 in /  34212.1 hPa SSW 1.4 mph /  2.3 km/h 1.6 mph /  2.6 km/h 93 % 0.0 in /  0 mm
22:59 5.5 °F /  -14.7 °C 4.6 °F /  -15.2 °C 1010.7 in /  34222.3 hPa Calm     94 % 0.0 in /  0 mm
23:05 5.4 °F /  -14.8 °C 4.5 °F /  -15.3 °C 1010.4 in /  34212.1 hPa Calm     94 % 0.0 in /  0 mm
23:11 5.4 °F /  -14.8 °C 4.7 °F /  -15.2 °C 1010.4 in /  34212.1 hPa Calm   1.6 mph /  2.6 km/h 95 % 0.0 in /  0 mm
23:17 5.3 °F /  -14.8 °C 4.6 °F /  -15.2 °C 1010.4 in /  34212.1 hPa Calm   1.6 mph /  2.6 km/h 95 % 0.0 in /  0 mm
23:26 5.1 °F /  -14.9 °C 4.4 °F /  -15.3 °C 1010.4 in /  34212.1 hPa East 1.4 mph /  2.3 km/h 1.6 mph /  2.6 km/h 95 % 0.0 in /  0 mm
23:32 5.1 °F /  -14.9 °C 4.4 °F /  -15.3 °C 1010.4 in /  34212.1 hPa NE 1.4 mph /  2.3 km/h 3.2 mph /  5.1 km/h 95 % 0.0 in /  0 mm
23:38 5.1 °F /  -14.9 °C 4.5 °F /  -15.3 °C 1010.7 in /  34222.3 hPa Calm   1.6 mph /  2.6 km/h 96 % 0.0 in /  0 mm
23:44 5.1 °F /  -14.9 °C 4.5 °F /  -15.3 °C 1010.4 in /  34212.1 hPa Calm   1.6 mph /  2.6 km/h 96 % 0.0 in /  0 mm
23:50 5.1 °F /  -14.9 °C 4.5 °F /  -15.3 °C 1010.4 in /  34212.1 hPa Calm     96 % 0.0 in /  0 mm
23:56 4.9 °F /  -15.1 °C 4.2 °F /  -15.4 °C 1010.4 in /  34212.1 hPa Calm     95 % 0.0 in /  0 mm
Meteo18
Compliments of Weather Underground - 4 mb

Script developed by  Jim McMurry - jmcmurry@mwt.net Adapted for the template by  Wim van der Kuil - Leuven-Template.eu

You find our weather info also at:

European Weather Network

Weather Underground

Equipment we use:

Weather-station
Davis Vue

Weather-program
Meteobridge

Weather-server
Raspberry PI 2 B+

Provider
1 and 1

Davis Vue

Meteobridge

Raspberry PI 2 B+

1 and 1